Time;durP1;ratioP1;P1;durP2;ratioP2;P2;SDS_P1;SDS_P2;PMS_P1;PMS_P2;Temp;Humidity;BMP_temperature;BMP_pressure;BME280_temperature;BME280_humidity;BME280_pressure;Samples;Min_cycle;Max_cycle;Signal;HPM_P1;HPM_P2
2023/05/04 00:01:27;;;;;;;2.47;1.08;;;;;;;18.80;30.46;102087.34;16111963;19;131505;-42
2023/05/04 00:06:49;;;;;;;1.42;0.70;;;;;;;18.79;30.78;102071.78;16107957;19;129945;-40
2023/05/04 00:12:11;;;;;;;3.50;1.00;;;;;;;18.76;30.50;102062.81;16112170;19;131508;-39
2023/05/04 00:17:33;;;;;;;1.08;0.70;;;;;;;18.76;30.51;102053.69;16110108;19;132189;-41
2023/05/04 00:22:55;;;;;;;2.83;0.60;;;;;;;18.75;30.91;102052.81;16101733;19;130981;-40
2023/05/04 00:28:17;;;;;;;1.10;0.70;;;;;;;18.75;30.77;102049.19;16106426;19;132624;-44
2023/05/04 00:33:39;;;;;;;2.28;0.50;;;;;;;18.73;30.81;102052.16;16111546;19;129418;-42
2023/05/04 00:39:01;;;;;;;2.00;0.80;;;;;;;18.73;31.00;102056.88;16114966;19;129696;-40
2023/05/04 00:44:23;;;;;;;1.05;0.68;;;;;;;18.72;30.80;102039.38;16110892;19;130368;-39
2023/05/04 00:49:45;;;;;;;3.40;1.02;;;;;;;18.71;30.98;102029.34;16112930;19;130810;-40
2023/05/04 00:55:07;;;;;;;2.28;0.75;;;;;;;18.71;30.77;102017.44;16110214;19;130257;-40
2023/05/04 01:00:29;;;;;;;3.40;0.80;;;;;;;18.70;31.04;102011.06;16111630;19;129626;-39
2023/05/04 01:06:06;;;;;;;1.08;0.68;;;;;;;18.71;31.03;102006.34;16109168;19;130478;-39
2023/05/04 01:11:46;;;;;;;1.80;0.70;;;;;;;18.70;30.70;101997.19;16111869;19;129820;-40
2023/05/04 01:17:07;;;;;;;1.35;0.60;;;;;;;18.66;30.96;101995.94;16109214;19;130155;-41
2023/05/04 01:22:30;;;;;;;0.95;0.52;;;;;;;18.66;31.19;101995.06;16108608;19;130268;-41
2023/05/04 01:28:01;;;;;;;2.22;0.82;;;;;;;18.65;30.71;101994.22;16107102;19;129768;-40
2023/05/04 01:33:23;;;;;;;1.58;0.60;;;;;;;18.65;31.01;101994.22;16111551;19;130846;-39
2023/05/04 01:38:52;;;;;;;0.88;0.70;;;;;;;18.64;30.93;101998.06;16109399;19;130536;-40
2023/05/04 01:44:13;;;;;;;1.05;0.60;;;;;;;18.63;30.91;102001.06;16109869;19;129853;-40
2023/05/04 01:49:35;;;;;;;3.70;1.05;;;;;;;18.63;30.85;101993.59;16103687;19;129777;-40
2023/05/04 01:54:57;;;;;;;2.55;0.93;;;;;;;18.60;30.96;101992.13;16110825;19;129459;-41
2023/05/04 02:00:19;;;;;;;2.85;0.90;;;;;;;18.61;30.99;101988.28;16107086;19;130659;-39
2023/05/04 02:05:41;;;;;;;1.42;0.77;;;;;;;18.60;31.12;101982.94;16120921;19;129662;-39
2023/05/04 02:11:02;;;;;;;1.20;0.60;;;;;;;18.59;31.16;101986.78;16121509;19;129569;-40
2023/05/04 02:16:24;;;;;;;2.03;0.82;;;;;;;18.58;31.03;101987.88;16127569;19;129138;-39
2023/05/04 02:21:47;;;;;;;1.02;0.80;;;;;;;18.57;31.06;101980.63;16119000;19;129397;-40
2023/05/04 02:27:09;;;;;;;1.70;0.77;;;;;;;18.57;30.90;101986.16;16121911;19;129403;-40
2023/05/04 02:32:31;;;;;;;1.67;0.80;;;;;;;18.56;30.83;101993.63;16121184;19;131750;-41
2023/05/04 02:37:52;;;;;;;2.30;0.80;;;;;;;18.54;31.12;101992.97;16119136;19;131321;-39
2023/05/04 02:43:14;;;;;;;2.03;0.77;;;;;;;18.54;31.34;101992.16;16120350;19;129064;-40
2023/05/04 02:48:36;;;;;;;1.58;0.70;;;;;;;18.53;31.27;101985.72;16119093;19;129419;-39
2023/05/04 02:53:58;;;;;;;1.48;0.70;;;;;;;18.53;31.19;101984.91;16117114;19;130322;-41
2023/05/04 02:59:20;;;;;;;3.30;0.80;;;;;;;18.52;30.96;101980.41;16127071;19;132033;-39
2023/05/04 03:04:42;;;;;;;1.23;0.65;;;;;;;18.51;31.00;101981.50;16115380;19;129680;-39
2023/05/04 03:10:04;;;;;;;4.85;1.02;;;;;;;18.50;30.90;101977.88;16115276;19;130906;-44
2023/05/04 03:15:27;;;;;;;1.13;0.60;;;;;;;18.50;31.40;101974.25;16116419;19;131118;-41
2023/05/04 03:20:49;;;;;;;2.80;0.90;;;;;;;18.49;30.95;101973.41;16116066;19;130820;-44
2023/05/04 03:26:11;;;;;;;1.88;1.05;;;;;;;18.48;31.00;101965.28;16116128;19;131857;-39
2023/05/04 03:31:33;;;;;;;2.85;0.90;;;;;;;18.48;31.27;101959.75;16116375;19;129488;-40
2023/05/04 03:36:55;;;;;;;2.50;0.70;;;;;;;18.47;31.08;101961.69;16118271;19;130557;-40
2023/05/04 03:42:17;;;;;;;2.55;0.70;;;;;;;18.45;31.22;101956.38;16118636;19;131460;-42
2023/05/04 03:47:39;;;;;;;1.98;0.70;;;;;;;18.44;31.09;101949.13;16119217;19;131449;-39
2023/05/04 03:53:00;;;;;;;2.72;0.80;;;;;;;18.44;31.27;101928.88;16119536;19;129611;-39
2023/05/04 03:58:22;;;;;;;0.90;0.60;;;;;;;18.43;31.41;101929.94;16115759;19;130164;-39
2023/05/04 04:03:44;;;;;;;0.95;0.65;;;;;;;18.41;31.42;101932.94;16114642;19;131085;-39
2023/05/04 04:09:06;;;;;;;1.65;0.80;;;;;;;18.41;31.22;101932.94;16113577;19;131601;-43
2023/05/04 04:14:28;;;;;;;2.13;0.70;;;;;;;18.41;31.39;101934.84;16117984;19;130972;-39
2023/05/04 04:19:50;;;;;;;1.50;0.90;;;;;;;18.39;30.97;101929.53;16112264;19;129287;-40
2023/05/04 04:25:12;;;;;;;1.83;0.90;;;;;;;18.37;30.98;101926.09;16114343;19;130684;-39
2023/05/04 04:30:34;;;;;;;0.85;0.75;;;;;;;18.37;31.32;101934.41;16113740;19;130847;-39
2023/05/04 04:35:56;;;;;;;1.33;0.70;;;;;;;18.36;31.37;101929.09;16115108;19;129427;-39
2023/05/04 04:41:18;;;;;;;1.95;0.40;;;;;;;18.35;31.14;101935.72;16113293;19;130070;-40
2023/05/04 04:46:39;;;;;;;2.38;0.90;;;;;;;18.35;31.25;101938.47;16111935;19;129407;-40
2023/05/04 04:52:01;;;;;;;2.13;0.57;;;;;;;18.34;31.28;101937.63;16114796;19;129162;-40
2023/05/04 04:57:23;;;;;;;2.40;0.90;;;;;;;18.35;31.16;101944.03;16118283;19;129842;-43
2023/05/04 05:02:45;;;;;;;1.55;0.80;;;;;;;18.32;31.47;101939.78;16115107;19;131229;-39
2023/05/04 05:08:07;;;;;;;1.25;0.80;;;;;;;18.31;31.54;101936.13;16112248;19;131234;-40
2023/05/04 05:13:30;;;;;;;1.70;0.85;;;;;;;18.30;31.26;101926.13;16094848;19;132080;-39
2023/05/04 05:18:52;;;;;;;2.35;0.98;;;;;;;18.31;31.41;101935.31;16086798;19;130758;-40
2023/05/04 05:24:14;;;;;;;1.88;0.80;;;;;;;18.31;31.69;101929.75;16104573;19;131173;-39
2023/05/04 05:29:36;;;;;;;1.25;0.68;;;;;;;18.34;31.30;101918.22;16101784;19;130006;-39
2023/05/04 05:34:57;;;;;;;3.90;1.23;;;;;;;18.37;31.89;101923.31;16103418;19;130988;-40
2023/05/04 05:40:21;;;;;;;4.40;1.20;;;;;;;18.42;31.91;101920.78;16116700;19;131391;-38
2023/05/04 05:45:43;;;;;;;5.13;1.00;;;;;;;18.49;31.91;101920.75;16127101;19;129507;-40
2023/05/04 05:51:04;;;;;;;6.82;1.17;;;;;;;18.53;31.51;101918.38;16122527;19;131078;-39
2023/05/04 05:56:26;;;;;;;4.82;1.38;;;;;;;18.57;31.70;101919.66;16123749;19;129383;-39
2023/05/04 06:01:48;;;;;;;6.88;1.63;;;;;;;18.59;31.40;101906.41;16125382;19;129629;-39
2023/05/04 06:07:12;;;;;;;7.30;1.38;;;;;;;18.62;31.80;101911.50;16120987;19;129426;-39
2023/05/04 06:12:34;;;;;;;3.30;1.10;;;;;;;18.64;31.43;101897.44;16126164;19;129714;-39
2023/05/04 06:17:56;;;;;;;5.85;0.90;;;;;;;18.66;31.73;101896.13;16123390;19;129992;-41
2023/05/04 06:23:18;;;;;;;13.75;1.52;;;;;;;18.70;31.72;101880.78;16127850;19;130068;-38
2023/05/04 06:28:39;;;;;;;12.07;1.45;;;;;;;18.73;31.89;101877.53;16126878;19;130293;-38
2023/05/04 06:34:01;;;;;;;13.02;1.85;;;;;;;18.76;31.88;101863.22;16115543;19;129790;-40
2023/05/04 06:39:23;;;;;;;9.50;1.55;;;;;;;18.82;31.82;101866.19;16121214;19;129523;-38
2023/05/04 06:44:45;;;;;;;8.38;1.48;;;;;;;18.86;31.53;101867.41;16121048;19;131371;-39
2023/05/04 06:50:08;;;;;;;9.23;1.70;;;;;;;18.89;31.80;101872.53;16121146;19;132082;-43
2023/05/04 06:55:30;;;;;;;11.13;1.60;;;;;;;18.91;31.78;101870.38;16124129;19;130134;-39
2023/05/04 07:00:52;;;;;;;6.75;1.30;;;;;;;18.96;31.98;101866.94;16124088;19;129742;-40
2023/05/04 07:06:14;;;;;;;8.13;1.55;;;;;;;19.00;31.98;101876.50;16122572;19;129366;-39
2023/05/04 07:11:36;;;;;;;10.43;1.13;;;;;;;19.03;31.68;101865.81;16123602;19;130583;-39
2023/05/04 07:16:59;;;;;;;10.20;1.48;;;;;;;19.06;31.94;101865.34;16122363;19;130408;-38
2023/05/04 07:22:21;;;;;;;8.35;1.60;;;;;;;19.07;31.92;101858.75;16116824;19;129698;-40
2023/05/04 07:27:44;;;;;;;9.40;1.27;;;;;;;19.10;31.98;101851.00;16125835;19;130592;-38
2023/05/04 07:33:05;;;;;;;7.63;1.30;;;;;;;19.12;31.79;101849.72;16117727;19;131203;-38
2023/05/04 07:38:28;;;;;;;8.18;1.50;;;;;;;19.15;31.54;101849.25;16118744;19;130037;-39
2023/05/04 07:43:49;;;;;;;14.55;1.60;;;;;;;19.19;32.05;101838.56;16121493;19;129570;-38
2023/05/04 07:49:12;;;;;;;7.93;1.13;;;;;;;19.21;31.91;101840.06;16117005;19;130320;-40
2023/05/04 07:54:35;;;;;;;9.93;1.45;;;;;;;19.24;31.73;101830.44;16116071;19;131179;-39
2023/05/04 07:59:57;;;;;;;5.03;1.15;;;;;;;19.26;31.99;101819.97;16118495;19;129007;-39
2023/05/04 08:05:19;;;;;;;5.95;1.30;;;;;;;19.28;31.92;101815.03;16118164;19;130731;-39
2023/05/04 08:10:40;;;;;;;3.95;1.25;;;;;;;19.31;31.54;101808.16;16119850;19;130256;-39
2023/05/04 08:16:02;;;;;;;6.47;1.50;;;;;;;19.36;31.60;101800.84;16120459;19;129735;-39
2023/05/04 08:21:24;;;;;;;5.63;1.38;;;;;;;19.41;31.49;101802.09;16118800;19;129926;-38
2023/05/04 08:26:46;;;;;;;7.18;1.60;;;;;;;19.44;31.80;101790.53;16117359;19;130434;-39
2023/05/04 08:32:27;;;;;;;11.93;1.80;;;;;;;19.48;31.69;101786.22;16116493;19;131455;-39
2023/05/04 08:37:53;;;;;;;7.85;1.40;;;;;;;19.49;31.66;101776.81;16111992;19;129762;-39
2023/05/04 08:43:15;;;;;;;6.80;1.60;;;;;;;19.51;31.76;101774.66;16113841;19;129256;-38
2023/05/04 08:48:37;;;;;;;4.45;1.90;;;;;;;19.53;31.29;101761.41;16114961;19;130617;-39
2023/05/04 08:54:00;;;;;;;5.85;1.90;;;;;;;19.54;31.85;101757.53;16115189;19;131494;-39
2023/05/04 08:59:23;;;;;;;7.60;2.15;;;;;;;19.57;31.77;101757.06;16114583;19;129675;-39
2023/05/04 09:04:45;;;;;;;9.82;2.20;;;;;;;19.57;31.63;101745.97;16114565;19;129585;-39
2023/05/04 09:10:08;;;;;;;6.72;1.58;;;;;;;19.59;31.96;101746.56;16110019;19;130394;-39
2023/05/04 09:15:31;;;;;;;5.30;1.85;;;;;;;19.60;31.66;101728.84;16114282;19;129564;-37
2023/05/04 09:20:53;;;;;;;3.80;1.92;;;;;;;19.62;31.95;101731.41;16116154;19;129212;-38
2023/05/04 09:26:26;;;;;;;8.57;1.92;;;;;;;19.66;31.51;101733.47;16115618;19;129558;-38
2023/05/04 09:31:51;;;;;;;8.32;2.10;;;;;;;19.72;32.08;101719.72;16113106;19;129933;-38
2023/05/04 09:37:13;;;;;;;10.30;1.90;;;;;;;19.72;31.93;101714.16;16107053;19;131096;-38
2023/05/04 09:42:34;;;;;;;7.05;2.00;;;;;;;19.69;31.95;101696.91;16110045;19;129012;-38
2023/05/04 09:47:57;;;;;;;4.32;2.00;;;;;;;19.72;32.12;101689.19;16108771;19;130196;-39
2023/05/04 09:53:22;;;;;;;8.60;2.03;;;;;;;19.73;31.74;101671.44;16103048;19;129564;-38
2023/05/04 09:58:45;;;;;;;7.32;2.38;;;;;;;19.72;31.82;101670.63;16109010;19;131874;-39
2023/05/04 10:04:07;;;;;;;7.03;2.13;;;;;;;19.72;31.85;101669.75;16104727;19;129923;-38
2023/05/04 10:09:30;;;;;;;5.43;2.13;;;;;;;19.72;31.96;101656.72;16107784;19;130651;-38
2023/05/04 10:14:52;;;;;;;4.00;2.10;;;;;;;19.68;32.15;101648.03;16109202;19;130275;-38
2023/05/04 10:20:56;;;;;;;6.05;2.50;;;;;;;19.71;31.95;101637.53;16110223;19;129369;-37
2023/05/04 10:26:23;;;;;;;6.45;2.25;;;;;;;19.68;32.09;101627.75;16118400;19;130239;-38
2023/05/04 10:31:50;;;;;;;6.10;2.50;;;;;;;19.69;31.94;101619.16;16128897;19;128928;-38
2023/05/04 10:37:20;;;;;;;6.97;2.30;;;;;;;19.71;31.91;101604.22;16123926;19;130340;-37
2023/05/04 10:42:43;;;;;;;5.97;1.90;;;;;;;19.67;32.19;101601.94;16125030;19;132348;-37
2023/05/04 10:48:08;;;;;;;8.73;2.10;;;;;;;19.63;32.30;101592.38;16126393;19;134215;-38
2023/05/04 10:53:31;;;;;;;6.80;2.33;;;;;;;19.60;32.36;101586.44;16123088;19;129759;-39
2023/05/04 10:58:54;;;;;;;6.72;2.53;;;;;;;19.58;32.15;101588.63;16123760;19;129154;-37
2023/05/04 11:04:22;;;;;;;10.25;2.45;;;;;;;19.57;32.21;101575.81;16124798;19;130054;-38
2023/05/04 11:09:44;;;;;;;6.95;2.33;;;;;;;19.54;32.35;101571.59;16120823;19;130728;-37
2023/05/04 11:15:08;;;;;;;8.07;2.38;;;;;;;19.54;32.56;101557.72;16121142;19;129193;-38
2023/05/04 11:20:30;;;;;;;5.90;2.03;;;;;;;19.53;32.38;101551.31;16122498;19;131795;-37
2023/05/04 11:25:52;;;;;;;8.15;2.45;;;;;;;19.52;32.46;101548.78;16122056;19;131217;-38
2023/05/04 11:31:16;;;;;;;4.57;1.90;;;;;;;19.51;32.32;101542.38;16119549;19;129800;-38
2023/05/04 11:36:38;;;;;;;4.18;1.90;;;;;;;19.51;32.36;101528.50;16117573;19;129548;-39
2023/05/04 11:42:06;;;;;;;5.10;2.22;;;;;;;19.49;32.32;101524.28;16119693;19;130581;-37
2023/05/04 11:47:28;;;;;;;9.32;3.25;;;;;;;19.55;32.79;101514.16;16118536;19;129735;-39
2023/05/04 11:52:50;;;;;;;10.77;2.67;;;;;;;19.62;32.79;101518.50;16117483;19;129741;-38
2023/05/04 11:58:12;;;;;;;6.38;2.10;;;;;;;19.68;32.44;101508.38;16118365;19;130569;-38
2023/05/04 12:03:38;;;;;;;8.07;2.63;;;;;;;19.75;32.20;101502.72;16121277;19;129890;-38
2023/05/04 12:09:15;;;;;;;7.22;2.20;;;;;;;19.75;32.55;101480.50;16117366;19;129691;-38
2023/05/04 12:14:58;;;;;;;8.35;2.20;;;;;;;19.78;32.37;101480.03;16121195;19;130206;-39
2023/05/04 12:20:26;;;;;;;6.60;2.33;;;;;;;19.78;32.39;101469.75;16111803;19;130744;-38
2023/05/04 12:25:50;;;;;;;5.88;2.33;;;;;;;19.81;32.41;101457.34;16119416;19;130664;-38
2023/05/04 12:31:19;;;;;;;5.55;1.75;;;;;;;19.83;32.64;101439.34;16114610;19;129266;-39
2023/05/04 12:36:44;;;;;;;8.77;1.95;;;;;;;19.85;32.98;101439.09;16117528;19;131091;-43
2023/05/04 12:42:05;;;;;;;5.32;2.00;;;;;;;19.88;32.99;101433.06;16113996;19;129577;-38
2023/05/04 12:47:27;;;;;;;9.18;1.90;;;;;;;19.89;32.61;101426.44;16119980;19;130962;-50
2023/05/04 12:52:49;;;;;;;5.97;1.60;;;;;;;19.90;32.68;101417.00;16122259;19;129438;-50
2023/05/04 12:58:11;;;;;;;5.85;1.60;;;;;;;19.93;33.00;101394.31;16117067;19;130286;-39
2023/05/04 13:03:33;;;;;;;3.80;1.55;;;;;;;19.94;32.83;101384.03;16119940;19;129578;-50
2023/05/04 13:08:56;;;;;;;4.03;1.75;;;;;;;19.94;32.59;101371.00;16117187;19;131534;-42
2023/05/04 13:14:17;;;;;;;3.72;1.85;;;;;;;19.94;32.77;101390.44;16115655;19;130295;-38
2023/05/04 13:19:39;;;;;;;3.58;1.35;;;;;;;19.94;32.97;101390.44;16112959;19;129577;-38
2023/05/04 13:25:01;;;;;;;2.88;1.70;;;;;;;19.95;32.79;101397.66;16112000;19;129736;-38
2023/05/04 13:30:24;;;;;;;3.17;1.50;;;;;;;19.96;32.89;101404.91;16112947;19;130172;-38
2023/05/04 13:35:46;;;;;;;1.77;1.35;;;;;;;19.95;32.65;101385.72;16108905;19;130360;-38
2023/05/04 13:41:07;;;;;;;6.75;1.60;;;;;;;19.95;32.73;101382.97;16105498;19;131446;-38
2023/05/04 13:46:29;;;;;;;3.20;1.30;;;;;;;19.94;32.91;101371.00;16110657;19;129608;-38
2023/05/04 13:51:55;;;;;;;3.00;1.42;;;;;;;19.96;33.15;101368.00;16107300;19;129676;-38
2023/05/04 13:57:17;;;;;;;1.80;1.40;;;;;;;19.95;32.93;101364.34;16117419;19;130037;-38
2023/05/04 14:02:39;;;;;;;3.42;1.20;;;;;;;19.97;32.73;101358.56;16124843;19;129594;-39
2023/05/04 14:08:01;;;;;;;2.10;1.20;;;;;;;19.96;33.25;101354.09;16126743;19;130105;-38
2023/05/04 14:13:23;;;;;;;2.13;1.40;;;;;;;19.95;33.17;101342.13;16124621;19;129678;-38
2023/05/04 14:18:46;;;;;;;5.20;1.20;;;;;;;19.95;33.23;101331.03;16124914;19;131578;-39
2023/05/04 14:24:08;;;;;;;6.35;1.50;;;;;;;19.97;33.02;101323.28;16124135;19;130105;-39
2023/05/04 14:29:31;;;;;;;4.88;1.60;;;;;;;19.97;32.96;101311.34;16121489;19;130212;-38
2023/05/04 14:35:00;;;;;;;4.80;1.45;;;;;;;19.99;33.02;101303.63;16123071;19;132045;-40
2023/05/04 14:40:22;;;;;;;2.55;1.25;;;;;;;20.00;33.41;101277.56;16119336;19;130187;-38
2023/05/04 14:45:44;;;;;;;4.22;1.50;;;;;;;20.01;33.37;101267.31;16123684;19;130911;-38
2023/05/04 14:51:06;;;;;;;3.78;1.40;;;;;;;20.02;33.43;101269.00;16118811;19;129385;-38
2023/05/04 14:56:28;;;;;;;6.72;1.60;;;;;;;20.01;33.02;101251.47;16122508;19;129237;-41
2023/05/04 15:01:51;;;;;;;2.78;1.48;;;;;;;20.03;33.10;101251.25;16123759;19;130556;-38
2023/05/04 15:07:19;;;;;;;2.70;1.23;;;;;;;20.04;33.11;101256.53;16119528;19;130573;-39
2023/05/04 15:12:41;;;;;;;5.78;1.23;;;;;;;20.06;33.06;101248.81;16119434;19;129626;-39
2023/05/04 15:18:03;;;;;;;2.15;1.00;;;;;;;20.08;33.24;101251.31;16119835;19;129585;-39
2023/05/04 15:23:26;;;;;;;3.03;1.38;;;;;;;20.08;33.24;101234.66;16118366;19;129967;-38
2023/05/04 15:28:48;;;;;;;4.82;1.63;;;;;;;20.08;33.01;101243.84;16117717;19;130671;-38
2023/05/04 15:34:13;;;;;;;3.35;1.30;;;;;;;20.08;33.29;101229.97;16116828;19;130069;-40
2023/05/04 15:39:38;;;;;;;3.78;1.15;;;;;;;20.09;33.18;101234.44;16122675;19;131349;-38
2023/05/04 15:45:00;;;;;;;3.95;1.23;;;;;;;20.09;32.96;101242.75;16114254;19;134305;-38
2023/05/04 15:50:22;;;;;;;3.42;1.33;;;;;;;20.08;33.44;101240.22;16115917;19;130473;-41
2023/05/04 15:55:45;;;;;;;2.53;1.33;;;;;;;20.08;33.41;101245.75;16110885;19;130674;-39
2023/05/04 16:01:07;;;;;;;4.25;1.48;;;;;;;20.08;33.20;101234.66;16110941;19;130923;-38
2023/05/04 16:06:31;;;;;;;5.67;1.17;;;;;;;20.06;33.68;101234.09;16119839;19;129892;-39
2023/05/04 16:11:53;;;;;;;6.10;1.08;;;;;;;20.07;33.87;101230.19;16114555;19;129499;-39
2023/05/04 16:17:15;;;;;;;6.80;1.50;;;;;;;20.08;34.20;101237.44;16112706;19;130924;-39
2023/05/04 16:22:37;;;;;;;7.47;1.90;;;;;;;20.09;33.88;101233.56;16114670;19;130821;-38
2023/05/04 16:27:59;;;;;;;10.25;2.20;;;;;;;20.10;34.25;101222.22;16113969;19;129311;-38
2023/05/04 16:33:21;;;;;;;10.77;1.83;;;;;;;20.09;34.63;101220.53;16116861;19;130547;-37
2023/05/04 16:38:43;;;;;;;11.15;2.95;;;;;;;20.10;34.54;101221.38;16117441;19;129643;-40
2023/05/04 16:44:05;;;;;;;14.07;2.85;;;;;;;20.10;35.08;101227.78;16114693;19;131699;-40
2023/05/04 16:49:28;;;;;;;11.50;2.85;;;;;;;20.13;35.65;101221.72;16110112;19;130891;-40
2023/05/04 16:54:49;;;;;;;14.15;2.85;;;;;;;20.14;36.01;101217.84;16111649;19;129822;-40
2023/05/04 17:00:12;;;;;;;14.00;2.30;;;;;;;20.15;36.21;101218.69;16111355;19;130311;-39
2023/05/04 17:05:34;;;;;;;16.60;2.88;;;;;;;20.15;36.02;101210.38;16115665;19;130113;-40
2023/05/04 17:10:59;;;;;;;6.82;2.10;;;;;;;20.13;36.62;101202.25;16107724;19;129567;-40
2023/05/04 17:16:21;;;;;;;12.27;2.10;;;;;;;20.16;36.98;101208.41;16105942;19;129743;-44
2023/05/04 17:21:43;;;;;;;9.50;2.97;;;;;;;20.15;36.70;101207.59;16110565;19;130999;-40
2023/05/04 17:27:05;;;;;;;12.45;2.08;;;;;;;20.12;36.72;101208.91;16109098;19;134027;-40
2023/05/04 17:32:27;;;;;;;8.27;2.10;;;;;;;20.12;36.65;101205.31;16105810;19;130919;-40
2023/05/04 17:37:49;;;;;;;10.35;2.53;;;;;;;20.11;36.22;101200.84;16024041;19;130764;-39
2023/05/04 17:43:10;;;;;;;10.95;2.20;;;;;;;20.10;36.55;101200.00;16107311;19;130846;-41
2023/05/04 17:48:35;;;;;;;9.63;1.88;;;;;;;20.10;36.32;101201.94;16102426;19;130642;-39
2023/05/04 17:53:56;;;;;;;7.32;1.73;;;;;;;20.08;36.44;101213.28;16105147;19;131035;-39
2023/05/04 17:59:18;;;;;;;9.27;2.00;;;;;;;20.07;35.98;101213.53;16101158;19;130105;-40
2023/05/04 18:04:40;;;;;;;6.97;1.73;;;;;;;20.07;35.86;101210.75;16091063;19;130718;-39
2023/05/04 18:10:03;;;;;;;6.63;1.92;;;;;;;20.06;35.82;101217.44;16099943;19;131313;-42
2023/05/04 18:15:25;;;;;;;12.05;2.15;;;;;;;20.04;35.90;101222.38;16095529;19;131105;-41
2023/05/04 18:20:47;;;;;;;15.70;2.20;;;;;;;20.02;36.21;101219.00;16105913;19;129863;-46
2023/05/04 18:26:16;;;;;;;7.75;1.60;;;;;;;20.00;36.24;101224.78;16109617;19;131654;-40
2023/05/04 18:31:38;;;;;;;9.30;1.70;;;;;;;19.97;36.07;101234.44;16102483;19;130536;-42
2023/05/04 18:37:00;;;;;;;10.73;1.88;;;;;;;19.97;35.95;101244.72;16103894;19;132740;-40
2023/05/04 18:42:22;;;;;;;13.30;1.80;;;;;;;19.95;36.31;101249.66;16104905;19;129761;-40
2023/05/04 18:47:44;;;;;;;8.43;1.58;;;;;;;19.94;36.49;101272.97;16117574;19;129949;-41
2023/05/04 18:53:06;;;;;;;7.00;1.60;;;;;;;19.93;36.27;101260.16;16122341;19;132607;-41
2023/05/04 18:58:28;;;;;;;7.70;1.90;;;;;;;19.92;36.14;101264.91;16119498;19;130219;-40
2023/05/04 19:03:50;;;;;;;13.77;1.55;;;;;;;19.91;36.19;101279.00;16121301;19;129658;-39
2023/05/04 19:09:13;;;;;;;9.30;1.40;;;;;;;19.89;36.06;101275.63;16117221;19;129042;-40
2023/05/04 19:14:35;;;;;;;10.70;1.55;;;;;;;19.88;36.01;101283.13;16117476;19;129919;-39
2023/05/04 19:19:57;;;;;;;5.35;1.20;;;;;;;19.87;36.26;101281.44;16104611;19;131475;-40
2023/05/04 19:25:20;;;;;;;19.95;2.67;;;;;;;19.87;35.98;101292.53;16109820;19;130357;-42
2023/05/04 19:30:56;;;;;;;12.23;2.45;;;;;;;19.87;36.48;101300.88;16117851;19;131758;-40
2023/05/04 19:36:18;;;;;;;10.35;1.83;;;;;;;19.85;36.39;101303.06;16114203;19;130571;-40
2023/05/04 19:41:40;;;;;;;8.57;1.30;;;;;;;19.85;36.20;101300.28;16111602;19;131388;-40
2023/05/04 19:47:02;;;;;;;12.32;1.50;;;;;;;19.91;36.00;101298.44;16116414;19;131023;-40
2023/05/04 19:52:24;;;;;;;13.65;1.73;;;;;;;19.99;35.89;101293.38;16115396;19;130061;-40
2023/05/04 19:57:48;;;;;;;9.80;1.95;;;;;;;20.05;35.98;101304.63;16098644;19;130243;-41
2023/05/04 20:03:10;;;;;;;8.30;1.60;;;;;;;20.06;36.33;101306.31;16108365;19;130732;-40
2023/05/04 20:08:32;;;;;;;15.90;1.85;;;;;;;20.11;35.98;101301.69;16114816;19;129365;-40
2023/05/04 20:13:54;;;;;;;13.15;1.85;;;;;;;20.17;36.00;101310.09;16111896;19;130516;-40
2023/05/04 20:19:16;;;;;;;9.38;1.38;;;;;;;20.22;35.98;101310.22;16110505;19;129626;-41
2023/05/04 20:24:39;;;;;;;12.70;1.80;;;;;;;20.26;36.43;101309.47;16115951;19;130350;-39
2023/05/04 20:30:01;;;;;;;14.20;1.33;;;;;;;20.29;36.51;101313.69;16114150;19;130280;-40
2023/05/04 20:35:23;;;;;;;17.33;1.75;;;;;;;20.30;36.58;101315.38;16111306;19;129915;-41
2023/05/04 20:40:45;;;;;;;6.75;1.20;;;;;;;20.29;36.91;101320.09;16113203;19;130226;-41
2023/05/04 20:46:07;;;;;;;10.77;1.30;;;;;;;20.28;36.43;101312.84;16111435;19;130444;-39
2023/05/04 20:51:30;;;;;;;10.50;1.17;;;;;;;20.28;36.49;101309.22;16110601;19;130096;-39
2023/05/04 20:56:52;;;;;;;7.05;1.35;;;;;;;20.27;36.94;101302.81;16109091;19;129826;-41
2023/05/04 21:02:14;;;;;;;9.43;1.30;;;;;;;20.26;37.06;101303.06;16100967;19;131021;-42
2023/05/04 21:07:36;;;;;;;6.68;1.17;;;;;;;20.27;36.81;101294.50;16101183;19;130334;-42
2023/05/04 21:12:58;;;;;;;8.20;1.48;;;;;;;20.27;36.85;101294.50;16102549;19;130300;-40
2023/05/04 21:18:20;;;;;;;6.57;1.10;;;;;;;20.27;37.07;101286.16;16102560;19;129779;-41
2023/05/04 21:23:42;;;;;;;7.22;1.35;;;;;;;20.29;36.80;101303.44;16112699;19;129916;-39
2023/05/04 21:29:04;;;;;;;9.70;1.40;;;;;;;20.26;36.78;101306.69;16110506;19;129825;-42
2023/05/04 21:34:26;;;;;;;15.75;1.20;;;;;;;20.23;36.55;101321.06;16108059;19;131374;-43
2023/05/04 21:39:53;;;;;;;3.83;1.17;;;;;;;20.20;37.01;101321.56;16109889;19;131187;-42
2023/05/04 21:45:14;;;;;;;6.13;1.00;;;;;;;20.17;36.88;101338.75;16104831;19;130452;-40
2023/05/04 21:50:36;;;;;;;7.32;1.48;;;;;;;20.13;37.01;101335.59;16104891;19;129540;-39
2023/05/04 21:56:08;;;;;;;5.35;1.13;;;;;;;20.10;36.59;101350.00;16108348;19;129289;-39
2023/05/04 22:01:30;;;;;;;5.00;1.20;;;;;;;20.07;36.51;101360.72;16111223;19;130185;-40
2023/05/04 22:06:52;;;;;;;4.43;1.10;;;;;;;20.02;37.04;101369.81;16107532;19;129876;-41
2023/05/04 22:12:13;;;;;;;4.15;1.15;;;;;;;19.99;37.05;101379.47;16106624;19;130052;-39
2023/05/04 22:17:36;;;;;;;3.17;1.30;;;;;;;19.96;36.94;101368.81;16107531;19;131241;-40
2023/05/04 22:22:58;;;;;;;2.22;0.90;;;;;;;19.93;36.58;101336.00;16118202;19;130497;-40
2023/05/04 22:28:21;;;;;;;3.33;0.80;;;;;;;19.90;36.88;101339.25;16123236;19;133171;-40
2023/05/04 22:33:42;;;;;;;6.53;0.90;;;;;;;19.88;37.18;101343.38;16122293;19;129913;-39
2023/05/04 22:39:04;;;;;;;3.72;1.00;;;;;;;19.86;36.72;101337.22;16118584;19;131304;-40
2023/05/04 22:44:26;;;;;;;1.83;0.98;;;;;;;19.83;36.66;101331.06;16120171;19;130737;-41
2023/05/04 22:49:53;;;;;;;3.53;0.98;;;;;;;19.83;36.89;101332.97;16118780;19;130833;-40
2023/05/04 22:55:15;;;;;;;2.60;1.00;;;;;;;19.81;36.94;101337.97;16113025;19;132096;-40
2023/05/04 23:00:37;;;;;;;3.63;0.98;;;;;;;19.79;37.23;101354.00;16115454;19;129671;-39
2023/05/04 23:05:58;;;;;;;1.05;0.75;;;;;;;19.77;36.75;101354.25;16118334;19;130035;-40
2023/05/04 23:11:20;;;;;;;4.13;1.20;;;;;;;19.76;36.99;101382.25;16118692;19;130874;-40
2023/05/04 23:16:42;;;;;;;1.75;0.80;;;;;;;19.75;37.22;101391.66;16117376;19;130155;-40
2023/05/04 23:22:04;;;;;;;2.22;0.80;;;;;;;19.74;37.18;101406.63;16117837;19;130350;-41
2023/05/04 23:27:26;;;;;;;3.20;0.88;;;;;;;19.70;37.01;101400.72;16118996;19;129960;-40
2023/05/04 23:32:48;;;;;;;2.25;1.30;;;;;;;19.68;37.39;101405.66;16116624;19;129137;-40
2023/05/04 23:38:10;;;;;;;4.32;1.10;;;;;;;19.67;37.18;101406.75;16121339;19;130124;-40
2023/05/04 23:43:31;;;;;;;3.80;1.30;;;;;;;19.66;37.49;101418.94;16110733;19;130196;-42
2023/05/04 23:48:53;;;;;;;2.33;0.85;;;;;;;19.64;37.40;101413.66;16114227;19;130405;-40
2023/05/04 23:54:15;;;;;;;3.17;1.00;;;;;;;19.64;37.02;101408.09;16115892;19;129754;-40
2023/05/04 23:59:39;;;;;;;1.45;0.88;;;;;;;19.63;37.16;101411.94;16110160;19;130407;-40
